sensor_id;sensor_type;location;lat;lon;timestamp;P1;durP1;ratioP1;P2;durP2;ratioP2
83094;SDS011;72967;43.674;6.976;2023-12-20T00:01:48;4.47;;;2.40;;
83094;SDS011;72967;43.674;6.976;2023-12-20T00:04:14;3.53;;;2.90;;
83094;SDS011;72967;43.674;6.976;2023-12-20T00:06:39;3.40;;;2.42;;
83094;SDS011;72967;43.674;6.976;2023-12-20T00:09:05;3.13;;;2.45;;
83094;SDS011;72967;43.674;6.976;2023-12-20T00:11:30;3.30;;;2.67;;
83094;SDS011;72967;43.674;6.976;2023-12-20T00:13:56;4.07;;;1.98;;
83094;SDS011;72967;43.674;6.976;2023-12-20T00:16:21;2.97;;;2.00;;
83094;SDS011;72967;43.674;6.976;2023-12-20T00:18:46;3.80;;;2.40;;
83094;SDS011;72967;43.674;6.976;2023-12-20T00:21:12;4.18;;;2.30;;
83094;SDS011;72967;43.674;6.976;2023-12-20T00:23:37;2.63;;;1.88;;
83094;SDS011;72967;43.674;6.976;2023-12-20T00:26:03;2.17;;;1.73;;
83094;SDS011;72967;43.674;6.976;2023-12-20T00:28:28;3.13;;;1.77;;
83094;SDS011;72967;43.674;6.976;2023-12-20T00:30:54;2.33;;;1.85;;
83094;SDS011;72967;43.674;6.976;2023-12-20T00:33:19;3.53;;;2.00;;
83094;SDS011;72967;43.674;6.976;2023-12-20T00:35:44;1.70;;;1.35;;
83094;SDS011;72967;43.674;6.976;2023-12-20T00:38:10;2.03;;;1.73;;
83094;SDS011;72967;43.674;6.976;2023-12-20T00:40:36;2.42;;;1.35;;
83094;SDS011;72967;43.674;6.976;2023-12-20T00:43:02;2.05;;;1.48;;
83094;SDS011;72967;43.674;6.976;2023-12-20T00:45:27;2.20;;;1.50;;
83094;SDS011;72967;43.674;6.976;2023-12-20T00:47:53;1.60;;;1.45;;
83094;SDS011;72967;43.674;6.976;2023-12-20T00:50:18;2.65;;;1.60;;
83094;SDS011;72967;43.674;6.976;2023-12-20T00:52:44;1.63;;;1.48;;
83094;SDS011;72967;43.674;6.976;2023-12-20T00:55:09;2.45;;;1.70;;
83094;SDS011;72967;43.674;6.976;2023-12-20T00:57:34;2.22;;;1.80;;
83094;SDS011;72967;43.674;6.976;2023-12-20T01:00:00;3.00;;;1.42;;
83094;SDS011;72967;43.674;6.976;2023-12-20T01:02:25;2.13;;;1.50;;
83094;SDS011;72967;43.674;6.976;2023-12-20T01:04:51;2.17;;;1.55;;
83094;SDS011;72967;43.674;6.976;2023-12-20T01:07:16;2.17;;;1.40;;
83094;SDS011;72967;43.674;6.976;2023-12-20T01:09:42;1.92;;;1.50;;
83094;SDS011;72967;43.674;6.976;2023-12-20T01:12:07;2.92;;;1.40;;
83094;SDS011;72967;43.674;6.976;2023-12-20T01:14:33;2.45;;;1.65;;
83094;SDS011;72967;43.674;6.976;2023-12-20T01:16:58;1.92;;;1.67;;
83094;SDS011;72967;43.674;6.976;2023-12-20T01:19:24;2.20;;;1.70;;
83094;SDS011;72967;43.674;6.976;2023-12-20T01:21:50;1.92;;;1.73;;
83094;SDS011;72967;43.674;6.976;2023-12-20T01:24:15;1.75;;;1.65;;
83094;SDS011;72967;43.674;6.976;2023-12-20T01:26:41;2.60;;;1.98;;
83094;SDS011;72967;43.674;6.976;2023-12-20T01:29:07;2.20;;;1.52;;
83094;SDS011;72967;43.674;6.976;2023-12-20T01:31:32;1.45;;;1.33;;
83094;SDS011;72967;43.674;6.976;2023-12-20T01:33:58;1.73;;;1.30;;
83094;SDS011;72967;43.674;6.976;2023-12-20T01:36:23;2.38;;;1.60;;
83094;SDS011;72967;43.674;6.976;2023-12-20T01:38:48;1.83;;;1.38;;
83094;SDS011;72967;43.674;6.976;2023-12-20T01:41:14;1.95;;;1.48;;
83094;SDS011;72967;43.674;6.976;2023-12-20T01:43:40;3.20;;;1.75;;
83094;SDS011;72967;43.674;6.976;2023-12-20T01:46:05;1.92;;;1.60;;
83094;SDS011;72967;43.674;6.976;2023-12-20T01:48:31;2.40;;;1.77;;
83094;SDS011;72967;43.674;6.976;2023-12-20T01:50:57;3.15;;;2.20;;
83094;SDS011;72967;43.674;6.976;2023-12-20T01:53:25;2.33;;;1.88;;
83094;SDS011;72967;43.674;6.976;2023-12-20T01:55:52;2.97;;;2.20;;
83094;SDS011;72967;43.674;6.976;2023-12-20T01:58:21;4.85;;;2.60;;
83094;SDS011;72967;43.674;6.976;2023-12-20T02:00:47;4.22;;;2.85;;
83094;SDS011;72967;43.674;6.976;2023-12-20T02:03:14;3.60;;;2.75;;
83094;SDS011;72967;43.674;6.976;2023-12-20T02:05:39;5.40;;;3.25;;
83094;SDS011;72967;43.674;6.976;2023-12-20T02:08:06;4.35;;;3.13;;
83094;SDS011;72967;43.674;6.976;2023-12-20T02:10:31;4.47;;;3.38;;
83094;SDS011;72967;43.674;6.976;2023-12-20T02:12:57;3.78;;;3.08;;
83094;SDS011;72967;43.674;6.976;2023-12-20T02:15:23;4.35;;;3.33;;
83094;SDS011;72967;43.674;6.976;2023-12-20T02:17:48;5.72;;;3.40;;
83094;SDS011;72967;43.674;6.976;2023-12-20T02:20:14;4.10;;;3.67;;
83094;SDS011;72967;43.674;6.976;2023-12-20T02:22:39;6.20;;;4.20;;
83094;SDS011;72967;43.674;6.976;2023-12-20T02:25:05;5.03;;;4.35;;
83094;SDS011;72967;43.674;6.976;2023-12-20T02:27:31;4.70;;;4.30;;
83094;SDS011;72967;43.674;6.976;2023-12-20T02:29:56;5.18;;;4.50;;
83094;SDS011;72967;43.674;6.976;2023-12-20T02:32:22;5.30;;;4.10;;
83094;SDS011;72967;43.674;6.976;2023-12-20T02:34:51;6.80;;;3.90;;
83094;SDS011;72967;43.674;6.976;2023-12-20T02:37:17;4.28;;;3.13;;
83094;SDS011;72967;43.674;6.976;2023-12-20T02:39:42;5.65;;;4.22;;
83094;SDS011;72967;43.674;6.976;2023-12-20T02:42:08;4.78;;;4.38;;
83094;SDS011;72967;43.674;6.976;2023-12-20T02:44:33;4.88;;;3.95;;
83094;SDS011;72967;43.674;6.976;2023-12-20T02:46:59;4.38;;;3.97;;
83094;SDS011;72967;43.674;6.976;2023-12-20T02:49:24;4.78;;;3.67;;
83094;SDS011;72967;43.674;6.976;2023-12-20T02:51:49;4.88;;;3.38;;
83094;SDS011;72967;43.674;6.976;2023-12-20T02:54:15;5.50;;;3.67;;
83094;SDS011;72967;43.674;6.976;2023-12-20T02:56:41;6.20;;;4.00;;
83094;SDS011;72967;43.674;6.976;2023-12-20T02:59:06;5.72;;;4.07;;
83094;SDS011;72967;43.674;6.976;2023-12-20T03:01:33;5.35;;;4.15;;
83094;SDS011;72967;43.674;6.976;2023-12-20T03:03:59;5.32;;;3.50;;
83094;SDS011;72967;43.674;6.976;2023-12-20T03:06:25;5.15;;;4.07;;
83094;SDS011;72967;43.674;6.976;2023-12-20T03:08:50;8.13;;;4.78;;
83094;SDS011;72967;43.674;6.976;2023-12-20T03:11:15;5.63;;;4.75;;
83094;SDS011;72967;43.674;6.976;2023-12-20T03:13:41;5.35;;;4.65;;
83094;SDS011;72967;43.674;6.976;2023-12-20T03:16:13;6.07;;;4.75;;
83094;SDS011;72967;43.674;6.976;2023-12-20T03:18:39;6.50;;;4.35;;
83094;SDS011;72967;43.674;6.976;2023-12-20T03:21:05;6.03;;;4.97;;
83094;SDS011;72967;43.674;6.976;2023-12-20T03:23:30;6.40;;;4.68;;
83094;SDS011;72967;43.674;6.976;2023-12-20T03:25:57;5.38;;;4.80;;
83094;SDS011;72967;43.674;6.976;2023-12-20T03:28:23;6.45;;;4.85;;
83094;SDS011;72967;43.674;6.976;2023-12-20T03:30:49;6.97;;;5.38;;
83094;SDS011;72967;43.674;6.976;2023-12-20T03:33:14;8.13;;;5.57;;
83094;SDS011;72967;43.674;6.976;2023-12-20T03:35:40;7.88;;;6.32;;
83094;SDS011;72967;43.674;6.976;2023-12-20T03:38:06;7.35;;;6.60;;
83094;SDS011;72967;43.674;6.976;2023-12-20T03:40:32;5.88;;;5.13;;
83094;SDS011;72967;43.674;6.976;2023-12-20T03:42:57;7.25;;;5.40;;
83094;SDS011;72967;43.674;6.976;2023-12-20T03:45:23;6.63;;;5.97;;
83094;SDS011;72967;43.674;6.976;2023-12-20T03:47:48;7.38;;;5.57;;
83094;SDS011;72967;43.674;6.976;2023-12-20T03:50:14;8.05;;;5.50;;
83094;SDS011;72967;43.674;6.976;2023-12-20T03:52:40;5.85;;;4.88;;
83094;SDS011;72967;43.674;6.976;2023-12-20T03:55:05;6.60;;;4.50;;
83094;SDS011;72967;43.674;6.976;2023-12-20T03:57:31;5.85;;;4.55;;
83094;SDS011;72967;43.674;6.976;2023-12-20T03:59:56;7.68;;;5.32;;
83094;SDS011;72967;43.674;6.976;2023-12-20T04:02:22;5.40;;;4.50;;
83094;SDS011;72967;43.674;6.976;2023-12-20T04:04:47;6.38;;;4.18;;
83094;SDS011;72967;43.674;6.976;2023-12-20T04:07:12;5.32;;;3.90;;
83094;SDS011;72967;43.674;6.976;2023-12-20T04:09:38;5.95;;;4.80;;
83094;SDS011;72967;43.674;6.976;2023-12-20T04:12:03;7.55;;;5.03;;
83094;SDS011;72967;43.674;6.976;2023-12-20T04:14:30;7.30;;;5.22;;
83094;SDS011;72967;43.674;6.976;2023-12-20T04:16:56;5.82;;;4.90;;
83094;SDS011;72967;43.674;6.976;2023-12-20T04:19:21;5.95;;;4.78;;
83094;SDS011;72967;43.674;6.976;2023-12-20T04:21:47;5.18;;;4.68;;
83094;SDS011;72967;43.674;6.976;2023-12-20T04:24:12;5.75;;;4.45;;
83094;SDS011;72967;43.674;6.976;2023-12-20T04:26:38;6.40;;;5.47;;
83094;SDS011;72967;43.674;6.976;2023-12-20T04:29:03;5.45;;;4.80;;
83094;SDS011;72967;43.674;6.976;2023-12-20T04:31:28;6.72;;;5.47;;
83094;SDS011;72967;43.674;6.976;2023-12-20T04:33:54;7.80;;;6.30;;
83094;SDS011;72967;43.674;6.976;2023-12-20T04:36:19;6.50;;;4.78;;
83094;SDS011;72967;43.674;6.976;2023-12-20T04:38:45;6.30;;;5.35;;
83094;SDS011;72967;43.674;6.976;2023-12-20T04:41:10;6.18;;;5.57;;
83094;SDS011;72967;43.674;6.976;2023-12-20T04:43:35;7.50;;;6.70;;
83094;SDS011;72967;43.674;6.976;2023-12-20T04:46:01;7.43;;;5.03;;
83094;SDS011;72967;43.674;6.976;2023-12-20T04:48:27;6.75;;;5.18;;
83094;SDS011;72967;43.674;6.976;2023-12-20T04:50:52;7.13;;;4.78;;
83094;SDS011;72967;43.674;6.976;2023-12-20T04:53:18;5.40;;;4.88;;
83094;SDS011;72967;43.674;6.976;2023-12-20T04:55:43;7.00;;;5.60;;
83094;SDS011;72967;43.674;6.976;2023-12-20T04:58:09;6.47;;;4.82;;
83094;SDS011;72967;43.674;6.976;2023-12-20T05:00:34;6.03;;;5.20;;
83094;SDS011;72967;43.674;6.976;2023-12-20T05:02:59;8.38;;;4.82;;
83094;SDS011;72967;43.674;6.976;2023-12-20T05:05:25;7.15;;;5.20;;
83094;SDS011;72967;43.674;6.976;2023-12-20T05:07:50;6.07;;;4.90;;
83094;SDS011;72967;43.674;6.976;2023-12-20T05:10:16;6.43;;;4.90;;
83094;SDS011;72967;43.674;6.976;2023-12-20T05:12:41;6.40;;;5.03;;
83094;SDS011;72967;43.674;6.976;2023-12-20T05:15:07;5.75;;;5.07;;
83094;SDS011;72967;43.674;6.976;2023-12-20T05:17:33;7.13;;;5.00;;
83094;SDS011;72967;43.674;6.976;2023-12-20T05:19:59;8.02;;;6.03;;
83094;SDS011;72967;43.674;6.976;2023-12-20T05:22:26;7.55;;;4.80;;
83094;SDS011;72967;43.674;6.976;2023-12-20T05:24:52;6.57;;;4.15;;
83094;SDS011;72967;43.674;6.976;2023-12-20T05:27:18;5.68;;;5.15;;
83094;SDS011;72967;43.674;6.976;2023-12-20T05:29:43;6.65;;;5.43;;
83094;SDS011;72967;43.674;6.976;2023-12-20T05:32:09;8.68;;;5.28;;
83094;SDS011;72967;43.674;6.976;2023-12-20T05:34:35;10.10;;;5.57;;
83094;SDS011;72967;43.674;6.976;2023-12-20T05:37:00;6.80;;;5.05;;
83094;SDS011;72967;43.674;6.976;2023-12-20T05:39:26;8.30;;;5.72;;
83094;SDS011;72967;43.674;6.976;2023-12-20T05:41:52;5.63;;;4.72;;
83094;SDS011;72967;43.674;6.976;2023-12-20T05:44:17;6.78;;;5.60;;
83094;SDS011;72967;43.674;6.976;2023-12-20T05:46:43;6.82;;;4.90;;
83094;SDS011;72967;43.674;6.976;2023-12-20T05:49:08;6.45;;;5.18;;
83094;SDS011;72967;43.674;6.976;2023-12-20T05:51:34;5.88;;;4.90;;
83094;SDS011;72967;43.674;6.976;2023-12-20T05:53:59;6.57;;;5.38;;
83094;SDS011;72967;43.674;6.976;2023-12-20T05:56:25;5.10;;;4.28;;
83094;SDS011;72967;43.674;6.976;2023-12-20T05:58:50;5.38;;;4.80;;
83094;SDS011;72967;43.674;6.976;2023-12-20T06:01:15;5.28;;;4.65;;
83094;SDS011;72967;43.674;6.976;2023-12-20T06:03:44;5.10;;;4.60;;
83094;SDS011;72967;43.674;6.976;2023-12-20T06:06:11;5.20;;;3.90;;
83094;SDS011;72967;43.674;6.976;2023-12-20T06:08:37;5.05;;;4.30;;
83094;SDS011;72967;43.674;6.976;2023-12-20T06:11:03;4.95;;;4.32;;
83094;SDS011;72967;43.674;6.976;2023-12-20T06:13:28;4.88;;;3.78;;
83094;SDS011;72967;43.674;6.976;2023-12-20T06:15:54;5.05;;;3.88;;
83094;SDS011;72967;43.674;6.976;2023-12-20T06:18:20;5.72;;;4.20;;
83094;SDS011;72967;43.674;6.976;2023-12-20T06:20:46;5.75;;;4.45;;
83094;SDS011;72967;43.674;6.976;2023-12-20T06:23:11;5.70;;;5.05;;
83094;SDS011;72967;43.674;6.976;2023-12-20T06:25:37;6.45;;;5.07;;
83094;SDS011;72967;43.674;6.976;2023-12-20T06:28:02;6.93;;;4.38;;
83094;SDS011;72967;43.674;6.976;2023-12-20T06:30:28;5.90;;;4.60;;
83094;SDS011;72967;43.674;6.976;2023-12-20T06:32:53;5.80;;;4.90;;
83094;SDS011;72967;43.674;6.976;2023-12-20T06:35:19;5.78;;;5.00;;
83094;SDS011;72967;43.674;6.976;2023-12-20T06:37:45;8.05;;;5.35;;
83094;SDS011;72967;43.674;6.976;2023-12-20T06:40:11;5.15;;;3.70;;
83094;SDS011;72967;43.674;6.976;2023-12-20T06:42:36;5.55;;;4.20;;
83094;SDS011;72967;43.674;6.976;2023-12-20T06:45:02;5.80;;;4.68;;
83094;SDS011;72967;43.674;6.976;2023-12-20T06:47:28;6.50;;;4.13;;
83094;SDS011;72967;43.674;6.976;2023-12-20T06:49:53;5.72;;;3.90;;
83094;SDS011;72967;43.674;6.976;2023-12-20T06:52:19;6.20;;;3.60;;
83094;SDS011;72967;43.674;6.976;2023-12-20T06:54:44;5.38;;;3.90;;
83094;SDS011;72967;43.674;6.976;2023-12-20T06:57:10;5.20;;;4.05;;
83094;SDS011;72967;43.674;6.976;2023-12-20T06:59:41;7.28;;;4.22;;
83094;SDS011;72967;43.674;6.976;2023-12-20T07:02:06;5.45;;;4.03;;
83094;SDS011;72967;43.674;6.976;2023-12-20T07:04:33;4.70;;;3.90;;
83094;SDS011;72967;43.674;6.976;2023-12-20T07:06:58;6.15;;;3.92;;
83094;SDS011;72967;43.674;6.976;2023-12-20T07:09:25;5.55;;;4.32;;
83094;SDS011;72967;43.674;6.976;2023-12-20T07:11:51;5.80;;;4.57;;
83094;SDS011;72967;43.674;6.976;2023-12-20T07:14:17;6.53;;;4.70;;
83094;SDS011;72967;43.674;6.976;2023-12-20T07:16:42;6.50;;;4.05;;
83094;SDS011;72967;43.674;6.976;2023-12-20T07:19:08;5.57;;;4.07;;
83094;SDS011;72967;43.674;6.976;2023-12-20T07:21:33;6.45;;;4.28;;
83094;SDS011;72967;43.674;6.976;2023-12-20T07:23:59;6.53;;;5.18;;
83094;SDS011;72967;43.674;6.976;2023-12-20T07:26:24;5.47;;;4.93;;
83094;SDS011;72967;43.674;6.976;2023-12-20T07:28:49;6.00;;;4.78;;
83094;SDS011;72967;43.674;6.976;2023-12-20T07:31:15;7.18;;;5.13;;
83094;SDS011;72967;43.674;6.976;2023-12-20T07:33:41;4.97;;;4.53;;
83094;SDS011;72967;43.674;6.976;2023-12-20T07:36:06;6.78;;;6.07;;
83094;SDS011;72967;43.674;6.976;2023-12-20T07:38:32;6.25;;;5.32;;
83094;SDS011;72967;43.674;6.976;2023-12-20T07:40:58;8.70;;;4.90;;
83094;SDS011;72967;43.674;6.976;2023-12-20T07:43:23;7.97;;;5.30;;
83094;SDS011;72967;43.674;6.976;2023-12-20T07:45:49;6.18;;;5.57;;
83094;SDS011;72967;43.674;6.976;2023-12-20T07:48:14;7.40;;;5.18;;
83094;SDS011;72967;43.674;6.976;2023-12-20T07:50:40;5.60;;;4.85;;
83094;SDS011;72967;43.674;6.976;2023-12-20T07:53:05;6.38;;;5.05;;
83094;SDS011;72967;43.674;6.976;2023-12-20T07:55:31;8.02;;;5.43;;
83094;SDS011;72967;43.674;6.976;2023-12-20T07:57:57;9.25;;;5.80;;
83094;SDS011;72967;43.674;6.976;2023-12-20T08:00:22;5.70;;;4.82;;
83094;SDS011;72967;43.674;6.976;2023-12-20T08:02:48;7.72;;;5.97;;
83094;SDS011;72967;43.674;6.976;2023-12-20T08:05:13;7.63;;;5.25;;
83094;SDS011;72967;43.674;6.976;2023-12-20T08:07:39;7.80;;;5.45;;
83094;SDS011;72967;43.674;6.976;2023-12-20T08:10:04;5.40;;;4.25;;
83094;SDS011;72967;43.674;6.976;2023-12-20T08:12:30;8.85;;;5.55;;
83094;SDS011;72967;43.674;6.976;2023-12-20T08:14:56;6.97;;;5.55;;
83094;SDS011;72967;43.674;6.976;2023-12-20T08:17:22;11.48;;;6.28;;
83094;SDS011;72967;43.674;6.976;2023-12-20T08:19:48;5.70;;;4.75;;
83094;SDS011;72967;43.674;6.976;2023-12-20T08:22:14;8.38;;;5.43;;
83094;SDS011;72967;43.674;6.976;2023-12-20T08:24:39;6.68;;;4.75;;
83094;SDS011;72967;43.674;6.976;2023-12-20T08:27:05;8.02;;;5.50;;
83094;SDS011;72967;43.674;6.976;2023-12-20T08:29:30;9.93;;;5.18;;
83094;SDS011;72967;43.674;6.976;2023-12-20T08:31:56;7.78;;;5.40;;
83094;SDS011;72967;43.674;6.976;2023-12-20T08:34:22;9.43;;;4.78;;
83094;SDS011;72967;43.674;6.976;2023-12-20T08:36:51;8.75;;;5.03;;
83094;SDS011;72967;43.674;6.976;2023-12-20T08:39:16;5.60;;;4.95;;
83094;SDS011;72967;43.674;6.976;2023-12-20T08:41:42;6.95;;;5.65;;
83094;SDS011;72967;43.674;6.976;2023-12-20T08:44:08;7.45;;;5.32;;
83094;SDS011;72967;43.674;6.976;2023-12-20T08:46:34;8.30;;;6.13;;
83094;SDS011;72967;43.674;6.976;2023-12-20T08:49:00;7.07;;;5.32;;
83094;SDS011;72967;43.674;6.976;2023-12-20T08:51:26;6.07;;;4.57;;
83094;SDS011;72967;43.674;6.976;2023-12-20T08:53:52;5.95;;;4.88;;
83094;SDS011;72967;43.674;6.976;2023-12-20T08:56:17;6.30;;;4.68;;
83094;SDS011;72967;43.674;6.976;2023-12-20T08:58:43;7.57;;;4.68;;
83094;SDS011;72967;43.674;6.976;2023-12-20T09:01:09;6.15;;;4.82;;
83094;SDS011;72967;43.674;6.976;2023-12-20T09:03:34;6.60;;;5.20;;
83094;SDS011;72967;43.674;6.976;2023-12-20T09:06:00;9.20;;;5.55;;
83094;SDS011;72967;43.674;6.976;2023-12-20T09:08:25;7.22;;;5.32;;
83094;SDS011;72967;43.674;6.976;2023-12-20T09:10:51;6.53;;;5.07;;
83094;SDS011;72967;43.674;6.976;2023-12-20T09:13:17;8.77;;;5.70;;
83094;SDS011;72967;43.674;6.976;2023-12-20T09:15:42;5.93;;;4.60;;
83094;SDS011;72967;43.674;6.976;2023-12-20T09:18:07;6.82;;;5.40;;
83094;SDS011;72967;43.674;6.976;2023-12-20T09:20:33;6.68;;;5.18;;
83094;SDS011;72967;43.674;6.976;2023-12-20T09:22:59;7.13;;;5.10;;
83094;SDS011;72967;43.674;6.976;2023-12-20T09:25:24;5.28;;;4.78;;
83094;SDS011;72967;43.674;6.976;2023-12-20T09:27:51;7.45;;;4.38;;
83094;SDS011;72967;43.674;6.976;2023-12-20T09:30:19;8.20;;;5.25;;
83094;SDS011;72967;43.674;6.976;2023-12-20T09:32:45;5.70;;;5.00;;
83094;SDS011;72967;43.674;6.976;2023-12-20T09:35:10;6.43;;;5.80;;
83094;SDS011;72967;43.674;6.976;2023-12-20T09:37:36;7.07;;;5.18;;
83094;SDS011;72967;43.674;6.976;2023-12-20T09:40:02;5.25;;;4.72;;
83094;SDS011;72967;43.674;6.976;2023-12-20T09:42:35;6.05;;;5.35;;
83094;SDS011;72967;43.674;6.976;2023-12-20T09:45:05;5.75;;;5.18;;
83094;SDS011;72967;43.674;6.976;2023-12-20T09:47:34;6.05;;;5.30;;
83094;SDS011;72967;43.674;6.976;2023-12-20T09:50:00;7.43;;;5.65;;
83094;SDS011;72967;43.674;6.976;2023-12-20T09:52:27;5.20;;;4.60;;
83094;SDS011;72967;43.674;6.976;2023-12-20T09:54:54;8.57;;;5.13;;
83094;SDS011;72967;43.674;6.976;2023-12-20T09:57:22;8.60;;;4.68;;
83094;SDS011;72967;43.674;6.976;2023-12-20T09:59:47;6.68;;;4.75;;
83094;SDS011;72967;43.674;6.976;2023-12-20T10:02:13;6.97;;;5.05;;
83094;SDS011;72967;43.674;6.976;2023-12-20T10:04:41;6.85;;;5.30;;
83094;SDS011;72967;43.674;6.976;2023-12-20T10:07:11;6.07;;;4.53;;
83094;SDS011;72967;43.674;6.976;2023-12-20T10:09:37;5.82;;;4.50;;
83094;SDS011;72967;43.674;6.976;2023-12-20T10:12:03;5.32;;;4.40;;
83094;SDS011;72967;43.674;6.976;2023-12-20T10:14:30;5.95;;;4.50;;
83094;SDS011;72967;43.674;6.976;2023-12-20T10:17:03;6.40;;;5.22;;
83094;SDS011;72967;43.674;6.976;2023-12-20T10:19:30;5.60;;;4.90;;
83094;SDS011;72967;43.674;6.976;2023-12-20T10:21:57;5.93;;;5.28;;
83094;SDS011;72967;43.674;6.976;2023-12-20T10:24:24;7.97;;;5.45;;
83094;SDS011;72967;43.674;6.976;2023-12-20T10:27:00;5.55;;;4.28;;
83094;SDS011;72967;43.674;6.976;2023-12-20T10:29:33;6.47;;;4.60;;
83094;SDS011;72967;43.674;6.976;2023-12-20T10:34:53;6.72;;;5.13;;
83094;SDS011;72967;43.674;6.976;2023-12-20T10:37:20;6.43;;;4.50;;
83094;SDS011;72967;43.674;6.976;2023-12-20T10:39:52;5.47;;;3.83;;
83094;SDS011;72967;43.674;6.976;2023-12-20T10:42:21;6.60;;;4.45;;
83094;SDS011;72967;43.674;6.976;2023-12-20T10:44:48;4.80;;;4.22;;
83094;SDS011;72967;43.674;6.976;2023-12-20T10:47:15;4.93;;;3.67;;
83094;SDS011;72967;43.674;6.976;2023-12-20T10:49:41;6.95;;;4.13;;
83094;SDS011;72967;43.674;6.976;2023-12-20T10:52:09;6.30;;;4.68;;
83094;SDS011;72967;43.674;6.976;2023-12-20T10:54:36;4.72;;;4.13;;
83094;SDS011;72967;43.674;6.976;2023-12-20T10:57:02;5.85;;;4.43;;
83094;SDS011;72967;43.674;6.976;2023-12-20T10:59:30;7.40;;;4.90;;
83094;SDS011;72967;43.674;6.976;2023-12-20T11:02:04;6.85;;;4.30;;
83094;SDS011;72967;43.674;6.976;2023-12-20T11:07:42;7.05;;;5.40;;
83094;SDS011;72967;43.674;6.976;2023-12-20T11:10:19;7.28;;;5.22;;
83094;SDS011;72967;43.674;6.976;2023-12-20T11:15:34;13.95;;;8.68;;
83094;SDS011;72967;43.674;6.976;2023-12-20T11:18:01;9.35;;;6.68;;
83094;SDS011;72967;43.674;6.976;2023-12-20T11:20:36;6.47;;;4.13;;
83094;SDS011;72967;43.674;6.976;2023-12-20T11:23:05;13.65;;;8.25;;
83094;SDS011;72967;43.674;6.976;2023-12-20T11:28:23;8.52;;;5.70;;
83094;SDS011;72967;43.674;6.976;2023-12-20T11:33:22;6.60;;;4.85;;
83094;SDS011;72967;43.674;6.976;2023-12-20T11:35:49;6.65;;;5.32;;
83094;SDS011;72967;43.674;6.976;2023-12-20T11:38:14;6.60;;;5.22;;
83094;SDS011;72967;43.674;6.976;2023-12-20T11:40:43;7.53;;;5.70;;
83094;SDS011;72967;43.674;6.976;2023-12-20T11:43:09;6.90;;;5.30;;
83094;SDS011;72967;43.674;6.976;2023-12-20T11:45:35;6.72;;;4.80;;
83094;SDS011;72967;43.674;6.976;2023-12-20T11:48:03;7.05;;;4.18;;
83094;SDS011;72967;43.674;6.976;2023-12-20T11:50:29;6.72;;;4.82;;
83094;SDS011;72967;43.674;6.976;2023-12-20T11:52:55;7.93;;;5.20;;
83094;SDS011;72967;43.674;6.976;2023-12-20T11:55:22;6.75;;;4.82;;
83094;SDS011;72967;43.674;6.976;2023-12-20T11:57:48;6.65;;;4.50;;
83094;SDS011;72967;43.674;6.976;2023-12-20T12:00:15;8.15;;;5.40;;
83094;SDS011;72967;43.674;6.976;2023-12-20T12:02:41;5.15;;;4.20;;
83094;SDS011;72967;43.674;6.976;2023-12-20T12:05:07;6.65;;;5.28;;
83094;SDS011;72967;43.674;6.976;2023-12-20T12:07:33;6.38;;;4.95;;
83094;SDS011;72967;43.674;6.976;2023-12-20T12:09:59;6.25;;;4.47;;
83094;SDS011;72967;43.674;6.976;2023-12-20T12:12:25;6.75;;;4.68;;
83094;SDS011;72967;43.674;6.976;2023-12-20T12:14:52;7.18;;;4.70;;
83094;SDS011;72967;43.674;6.976;2023-12-20T12:17:18;8.52;;;6.45;;
83094;SDS011;72967;43.674;6.976;2023-12-20T12:19:43;7.05;;;4.70;;
83094;SDS011;72967;43.674;6.976;2023-12-20T12:22:09;6.80;;;4.68;;
83094;SDS011;72967;43.674;6.976;2023-12-20T12:24:41;5.25;;;4.60;;
83094;SDS011;72967;43.674;6.976;2023-12-20T12:27:08;7.28;;;4.07;;
83094;SDS011;72967;43.674;6.976;2023-12-20T12:29:34;8.05;;;4.72;;
83094;SDS011;72967;43.674;6.976;2023-12-20T12:32:01;5.45;;;4.15;;
83094;SDS011;72967;43.674;6.976;2023-12-20T12:34:30;6.00;;;4.90;;
83094;SDS011;72967;43.674;6.976;2023-12-20T12:36:56;6.25;;;4.22;;
83094;SDS011;72967;43.674;6.976;2023-12-20T12:39:24;5.70;;;4.50;;
83094;SDS011;72967;43.674;6.976;2023-12-20T12:41:50;6.72;;;4.90;;
83094;SDS011;72967;43.674;6.976;2023-12-20T12:44:16;5.82;;;4.78;;
83094;SDS011;72967;43.674;6.976;2023-12-20T12:46:42;7.38;;;5.30;;
83094;SDS011;72967;43.674;6.976;2023-12-20T12:49:09;6.07;;;4.70;;
83094;SDS011;72967;43.674;6.976;2023-12-20T12:51:34;7.68;;;5.00;;
83094;SDS011;72967;43.674;6.976;2023-12-20T12:53:59;6.78;;;4.40;;
83094;SDS011;72967;43.674;6.976;2023-12-20T12:56:27;5.43;;;4.70;;
83094;SDS011;72967;43.674;6.976;2023-12-20T12:58:53;7.53;;;4.22;;
83094;SDS011;72967;43.674;6.976;2023-12-20T13:01:18;7.85;;;4.97;;
83094;SDS011;72967;43.674;6.976;2023-12-20T13:03:43;7.18;;;5.28;;
83094;SDS011;72967;43.674;6.976;2023-12-20T13:06:09;6.88;;;4.68;;
83094;SDS011;72967;43.674;6.976;2023-12-20T13:08:34;10.55;;;5.95;;
83094;SDS011;72967;43.674;6.976;2023-12-20T13:11:00;8.68;;;5.10;;
83094;SDS011;72967;43.674;6.976;2023-12-20T13:13:28;5.65;;;5.00;;
83094;SDS011;72967;43.674;6.976;2023-12-20T13:15:54;6.13;;;4.60;;
83094;SDS011;72967;43.674;6.976;2023-12-20T13:18:20;7.68;;;4.63;;
83094;SDS011;72967;43.674;6.976;2023-12-20T13:20:46;5.00;;;4.43;;
83094;SDS011;72967;43.674;6.976;2023-12-20T13:23:12;8.30;;;4.68;;
83094;SDS011;72967;43.674;6.976;2023-12-20T13:25:38;9.68;;;4.75;;
83094;SDS011;72967;43.674;6.976;2023-12-20T13:28:04;5.85;;;4.43;;
83094;SDS011;72967;43.674;6.976;2023-12-20T13:30:30;8.13;;;5.22;;
83094;SDS011;72967;43.674;6.976;2023-12-20T13:32:55;6.03;;;4.32;;
83094;SDS011;72967;43.674;6.976;2023-12-20T13:35:21;6.03;;;4.32;;
83094;SDS011;72967;43.674;6.976;2023-12-20T13:37:46;5.70;;;4.55;;
83094;SDS011;72967;43.674;6.976;2023-12-20T13:40:12;6.40;;;4.82;;
83094;SDS011;72967;43.674;6.976;2023-12-20T13:42:38;7.30;;;4.60;;
83094;SDS011;72967;43.674;6.976;2023-12-20T13:45:04;5.65;;;4.18;;
83094;SDS011;72967;43.674;6.976;2023-12-20T13:47:31;5.32;;;4.40;;
83094;SDS011;72967;43.674;6.976;2023-12-20T13:49:56;6.05;;;4.47;;
83094;SDS011;72967;43.674;6.976;2023-12-20T13:52:22;6.13;;;4.95;;
83094;SDS011;72967;43.674;6.976;2023-12-20T13:54:47;5.65;;;3.97;;
83094;SDS011;72967;43.674;6.976;2023-12-20T13:57:13;5.15;;;4.35;;
83094;SDS011;72967;43.674;6.976;2023-12-20T13:59:38;5.90;;;4.47;;
83094;SDS011;72967;43.674;6.976;2023-12-20T14:02:03;8.98;;;4.95;;
83094;SDS011;72967;43.674;6.976;2023-12-20T14:04:29;6.60;;;4.70;;
83094;SDS011;72967;43.674;6.976;2023-12-20T14:06:56;6.22;;;4.32;;
83094;SDS011;72967;43.674;6.976;2023-12-20T14:09:21;6.38;;;4.45;;
83094;SDS011;72967;43.674;6.976;2023-12-20T14:11:47;7.00;;;4.10;;
83094;SDS011;72967;43.674;6.976;2023-12-20T14:14:12;7.18;;;4.38;;
83094;SDS011;72967;43.674;6.976;2023-12-20T14:16:37;6.72;;;4.35;;
83094;SDS011;72967;43.674;6.976;2023-12-20T14:19:03;6.82;;;4.40;;
83094;SDS011;72967;43.674;6.976;2023-12-20T14:21:29;7.30;;;4.57;;
83094;SDS011;72967;43.674;6.976;2023-12-20T14:23:54;7.80;;;4.35;;
83094;SDS011;72967;43.674;6.976;2023-12-20T14:26:19;9.63;;;5.15;;
83094;SDS011;72967;43.674;6.976;2023-12-20T14:28:45;5.85;;;4.13;;
83094;SDS011;72967;43.674;6.976;2023-12-20T14:31:10;5.10;;;3.85;;
83094;SDS011;72967;43.674;6.976;2023-12-20T14:33:37;4.35;;;3.47;;
83094;SDS011;72967;43.674;6.976;2023-12-20T14:36:04;5.72;;;4.10;;
83094;SDS011;72967;43.674;6.976;2023-12-20T14:38:30;5.22;;;3.63;;
83094;SDS011;72967;43.674;6.976;2023-12-20T14:40:56;8.35;;;4.38;;
83094;SDS011;72967;43.674;6.976;2023-12-20T14:43:22;7.90;;;4.80;;
83094;SDS011;72967;43.674;6.976;2023-12-20T14:45:47;7.57;;;4.38;;
83094;SDS011;72967;43.674;6.976;2023-12-20T14:48:13;5.63;;;4.32;;
83094;SDS011;72967;43.674;6.976;2023-12-20T14:50:38;6.28;;;4.75;;
83094;SDS011;72967;43.674;6.976;2023-12-20T14:53:05;6.20;;;4.57;;
83094;SDS011;72967;43.674;6.976;2023-12-20T14:55:32;5.93;;;4.28;;